sensor_id;sensor_type;location;lat;lon;timestamp;P1;durP1;ratioP1;P2;durP2;ratioP2
27428;SDS011;14881;48.092;11.574;2024-03-02T00:00:49;19.20;;;12.88;;
27428;SDS011;14881;48.092;11.574;2024-03-02T00:03:18;17.67;;;12.18;;
27428;SDS011;14881;48.092;11.574;2024-03-02T00:05:50;17.20;;;12.50;;
27428;SDS011;14881;48.092;11.574;2024-03-02T00:08:21;15.98;;;12.63;;
27428;SDS011;14881;48.092;11.574;2024-03-02T00:10:56;16.25;;;12.23;;
27428;SDS011;14881;48.092;11.574;2024-03-02T00:13:25;18.15;;;13.00;;
27428;SDS011;14881;48.092;11.574;2024-03-02T00:15:54;19.85;;;13.10;;
27428;SDS011;14881;48.092;11.574;2024-03-02T00:18:25;21.85;;;15.35;;
27428;SDS011;14881;48.092;11.574;2024-03-02T00:20:54;21.77;;;15.82;;
27428;SDS011;14881;48.092;11.574;2024-03-02T00:23:27;23.48;;;17.75;;
27428;SDS011;14881;48.092;11.574;2024-03-02T00:25:57;24.40;;;17.10;;
27428;SDS011;14881;48.092;11.574;2024-03-02T00:28:27;21.15;;;16.15;;
27428;SDS011;14881;48.092;11.574;2024-03-02T00:30:57;24.10;;;17.10;;
27428;SDS011;14881;48.092;11.574;2024-03-02T00:33:26;21.88;;;15.85;;
27428;SDS011;14881;48.092;11.574;2024-03-02T00:35:58;23.10;;;17.67;;
27428;SDS011;14881;48.092;11.574;2024-03-02T00:38:28;23.50;;;17.55;;
27428;SDS011;14881;48.092;11.574;2024-03-02T00:40:57;21.35;;;16.83;;
27428;SDS011;14881;48.092;11.574;2024-03-02T00:46:14;26.25;;;19.67;;
27428;SDS011;14881;48.092;11.574;2024-03-02T00:51:32;26.98;;;20.83;;
27428;SDS011;14881;48.092;11.574;2024-03-02T00:54:04;30.17;;;20.83;;
27428;SDS011;14881;48.092;11.574;2024-03-02T00:56:32;32.03;;;23.00;;
27428;SDS011;14881;48.092;11.574;2024-03-02T00:59:02;27.65;;;20.48;;
27428;SDS011;14881;48.092;11.574;2024-03-02T01:01:30;28.67;;;19.83;;
27428;SDS011;14881;48.092;11.574;2024-03-02T01:03:58;29.95;;;21.55;;
27428;SDS011;14881;48.092;11.574;2024-03-02T01:06:26;30.80;;;21.23;;
27428;SDS011;14881;48.092;11.574;2024-03-02T01:08:54;27.73;;;21.80;;
27428;SDS011;14881;48.092;11.574;2024-03-02T01:11:23;28.10;;;21.42;;
27428;SDS011;14881;48.092;11.574;2024-03-02T01:13:51;24.80;;;19.15;;
27428;SDS011;14881;48.092;11.574;2024-03-02T01:16:19;24.65;;;19.17;;
27428;SDS011;14881;48.092;11.574;2024-03-02T01:18:47;26.02;;;19.55;;
27428;SDS011;14881;48.092;11.574;2024-03-02T01:21:15;26.33;;;18.48;;
27428;SDS011;14881;48.092;11.574;2024-03-02T01:23:43;26.33;;;18.95;;
27428;SDS011;14881;48.092;11.574;2024-03-02T01:26:13;26.80;;;17.95;;
27428;SDS011;14881;48.092;11.574;2024-03-02T01:28:42;25.08;;;18.27;;
27428;SDS011;14881;48.092;11.574;2024-03-02T01:31:10;23.73;;;18.73;;
27428;SDS011;14881;48.092;11.574;2024-03-02T01:33:38;27.58;;;20.17;;
27428;SDS011;14881;48.092;11.574;2024-03-02T01:36:06;27.63;;;20.38;;
27428;SDS011;14881;48.092;11.574;2024-03-02T01:38:35;26.95;;;19.67;;
27428;SDS011;14881;48.092;11.574;2024-03-02T01:41:02;26.90;;;19.75;;
27428;SDS011;14881;48.092;11.574;2024-03-02T01:43:30;25.20;;;19.20;;
27428;SDS011;14881;48.092;11.574;2024-03-02T01:45:59;25.65;;;19.45;;
27428;SDS011;14881;48.092;11.574;2024-03-02T01:48:27;25.75;;;18.33;;
27428;SDS011;14881;48.092;11.574;2024-03-02T01:50:58;22.45;;;18.40;;
27428;SDS011;14881;48.092;11.574;2024-03-02T01:53:25;25.42;;;19.33;;
27428;SDS011;14881;48.092;11.574;2024-03-02T01:55:54;24.85;;;18.80;;
27428;SDS011;14881;48.092;11.574;2024-03-02T01:58:22;25.00;;;18.27;;
27428;SDS011;14881;48.092;11.574;2024-03-02T02:00:50;24.70;;;18.35;;
27428;SDS011;14881;48.092;11.574;2024-03-02T02:03:19;24.88;;;18.42;;
27428;SDS011;14881;48.092;11.574;2024-03-02T02:05:47;26.08;;;18.88;;
27428;SDS011;14881;48.092;11.574;2024-03-02T02:08:15;25.90;;;19.27;;
27428;SDS011;14881;48.092;11.574;2024-03-02T02:10:43;25.08;;;18.40;;
27428;SDS011;14881;48.092;11.574;2024-03-02T02:13:14;26.42;;;19.48;;
27428;SDS011;14881;48.092;11.574;2024-03-02T02:15:42;24.63;;;19.40;;
27428;SDS011;14881;48.092;11.574;2024-03-02T02:18:09;27.08;;;19.67;;
27428;SDS011;14881;48.092;11.574;2024-03-02T02:20:39;25.10;;;18.60;;
27428;SDS011;14881;48.092;11.574;2024-03-02T02:23:08;22.52;;;17.92;;
27428;SDS011;14881;48.092;11.574;2024-03-02T02:25:36;29.40;;;19.50;;
27428;SDS011;14881;48.092;11.574;2024-03-02T02:28:04;23.13;;;18.17;;
27428;SDS011;14881;48.092;11.574;2024-03-02T02:30:38;26.33;;;17.95;;
27428;SDS011;14881;48.092;11.574;2024-03-02T02:33:06;25.52;;;19.00;;
27428;SDS011;14881;48.092;11.574;2024-03-02T02:35:34;24.27;;;18.35;;
27428;SDS011;14881;48.092;11.574;2024-03-02T02:38:02;25.70;;;19.05;;
27428;SDS011;14881;48.092;11.574;2024-03-02T02:40:31;27.23;;;18.60;;
27428;SDS011;14881;48.092;11.574;2024-03-02T02:42:59;25.10;;;18.13;;
27428;SDS011;14881;48.092;11.574;2024-03-02T02:45:27;26.65;;;18.77;;
27428;SDS011;14881;48.092;11.574;2024-03-02T02:47:55;25.55;;;18.10;;
27428;SDS011;14881;48.092;11.574;2024-03-02T02:50:23;26.75;;;18.10;;
27428;SDS011;14881;48.092;11.574;2024-03-02T02:52:51;23.08;;;17.55;;
27428;SDS011;14881;48.092;11.574;2024-03-02T02:55:18;25.65;;;18.40;;
27428;SDS011;14881;48.092;11.574;2024-03-02T02:57:48;24.83;;;17.80;;
27428;SDS011;14881;48.092;11.574;2024-03-02T03:00:16;26.75;;;19.02;;
27428;SDS011;14881;48.092;11.574;2024-03-02T03:02:47;27.25;;;19.77;;
27428;SDS011;14881;48.092;11.574;2024-03-02T03:05:17;23.88;;;18.30;;
27428;SDS011;14881;48.092;11.574;2024-03-02T03:07:45;30.83;;;22.52;;
27428;SDS011;14881;48.092;11.574;2024-03-02T03:10:16;30.42;;;21.13;;
27428;SDS011;14881;48.092;11.574;2024-03-02T03:12:45;27.30;;;20.45;;
27428;SDS011;14881;48.092;11.574;2024-03-02T03:15:14;28.70;;;19.23;;
27428;SDS011;14881;48.092;11.574;2024-03-02T03:17:43;26.67;;;19.02;;
27428;SDS011;14881;48.092;11.574;2024-03-02T03:20:12;35.88;;;22.45;;
27428;SDS011;14881;48.092;11.574;2024-03-02T03:22:41;31.25;;;21.75;;
27428;SDS011;14881;48.092;11.574;2024-03-02T03:25:09;29.92;;;20.10;;
27428;SDS011;14881;48.092;11.574;2024-03-02T03:27:37;28.98;;;20.98;;
27428;SDS011;14881;48.092;11.574;2024-03-02T03:30:06;29.33;;;21.25;;
27428;SDS011;14881;48.092;11.574;2024-03-02T03:32:36;27.83;;;19.80;;
27428;SDS011;14881;48.092;11.574;2024-03-02T03:35:04;28.95;;;19.75;;
27428;SDS011;14881;48.092;11.574;2024-03-02T03:37:33;25.67;;;19.98;;
27428;SDS011;14881;48.092;11.574;2024-03-02T03:40:01;28.15;;;20.10;;
27428;SDS011;14881;48.092;11.574;2024-03-02T03:42:29;26.08;;;18.73;;
27428;SDS011;14881;48.092;11.574;2024-03-02T03:44:57;25.65;;;18.08;;
27428;SDS011;14881;48.092;11.574;2024-03-02T03:47:25;25.02;;;18.55;;
27428;SDS011;14881;48.092;11.574;2024-03-02T03:49:54;28.50;;;18.85;;
27428;SDS011;14881;48.092;11.574;2024-03-02T03:52:24;26.20;;;17.88;;
27428;SDS011;14881;48.092;11.574;2024-03-02T03:54:52;26.52;;;19.15;;
27428;SDS011;14881;48.092;11.574;2024-03-02T03:57:20;24.85;;;19.13;;
27428;SDS011;14881;48.092;11.574;2024-03-02T03:59:51;26.27;;;19.17;;
27428;SDS011;14881;48.092;11.574;2024-03-02T04:02:19;25.67;;;19.38;;
27428;SDS011;14881;48.092;11.574;2024-03-02T04:04:47;25.23;;;19.08;;
27428;SDS011;14881;48.092;11.574;2024-03-02T04:07:16;27.00;;;18.63;;
27428;SDS011;14881;48.092;11.574;2024-03-02T04:09:44;27.20;;;19.48;;
27428;SDS011;14881;48.092;11.574;2024-03-02T04:12:12;28.00;;;20.17;;
27428;SDS011;14881;48.092;11.574;2024-03-02T04:14:40;25.27;;;18.20;;
27428;SDS011;14881;48.092;11.574;2024-03-02T04:17:09;26.55;;;19.52;;
27428;SDS011;14881;48.092;11.574;2024-03-02T04:19:37;29.95;;;19.88;;
27428;SDS011;14881;48.092;11.574;2024-03-02T04:22:04;29.00;;;20.38;;
27428;SDS011;14881;48.092;11.574;2024-03-02T04:24:45;29.95;;;21.45;;
27428;SDS011;14881;48.092;11.574;2024-03-02T04:27:13;28.52;;;20.30;;
27428;SDS011;14881;48.092;11.574;2024-03-02T04:29:41;33.10;;;22.13;;
27428;SDS011;14881;48.092;11.574;2024-03-02T04:32:09;30.83;;;22.33;;
27428;SDS011;14881;48.092;11.574;2024-03-02T04:34:36;30.83;;;20.75;;
27428;SDS011;14881;48.092;11.574;2024-03-02T04:37:04;29.30;;;20.27;;
27428;SDS011;14881;48.092;11.574;2024-03-02T04:39:34;30.55;;;21.50;;
27428;SDS011;14881;48.092;11.574;2024-03-02T04:42:03;27.77;;;20.08;;
27428;SDS011;14881;48.092;11.574;2024-03-02T04:44:32;31.70;;;22.55;;
27428;SDS011;14881;48.092;11.574;2024-03-02T04:47:00;28.75;;;20.80;;
27428;SDS011;14881;48.092;11.574;2024-03-02T04:49:28;28.60;;;19.90;;
27428;SDS011;14881;48.092;11.574;2024-03-02T04:51:56;30.67;;;21.90;;
27428;SDS011;14881;48.092;11.574;2024-03-02T04:54:24;29.52;;;20.77;;
27428;SDS011;14881;48.092;11.574;2024-03-02T04:56:52;29.63;;;21.42;;
27428;SDS011;14881;48.092;11.574;2024-03-02T04:59:21;31.88;;;21.77;;
27428;SDS011;14881;48.092;11.574;2024-03-02T05:01:49;31.33;;;21.27;;
27428;SDS011;14881;48.092;11.574;2024-03-02T05:04:17;33.95;;;23.35;;
27428;SDS011;14881;48.092;11.574;2024-03-02T05:06:45;35.63;;;23.80;;
27428;SDS011;14881;48.092;11.574;2024-03-02T05:09:19;32.33;;;23.05;;
27428;SDS011;14881;48.092;11.574;2024-03-02T05:11:47;34.20;;;24.60;;
27428;SDS011;14881;48.092;11.574;2024-03-02T05:14:37;36.58;;;25.70;;
27428;SDS011;14881;48.092;11.574;2024-03-02T05:17:05;35.85;;;24.70;;
27428;SDS011;14881;48.092;11.574;2024-03-02T05:19:33;36.03;;;24.48;;
27428;SDS011;14881;48.092;11.574;2024-03-02T05:22:01;31.88;;;21.40;;
27428;SDS011;14881;48.092;11.574;2024-03-02T05:24:29;31.02;;;21.40;;
27428;SDS011;14881;48.092;11.574;2024-03-02T05:26:57;31.00;;;21.60;;
27428;SDS011;14881;48.092;11.574;2024-03-02T05:29:26;28.52;;;19.67;;
27428;SDS011;14881;48.092;11.574;2024-03-02T05:31:55;27.30;;;19.77;;
27428;SDS011;14881;48.092;11.574;2024-03-02T05:34:22;26.77;;;19.27;;
27428;SDS011;14881;48.092;11.574;2024-03-02T05:36:50;26.42;;;19.45;;
27428;SDS011;14881;48.092;11.574;2024-03-02T05:39:18;29.27;;;20.63;;
27428;SDS011;14881;48.092;11.574;2024-03-02T05:41:46;27.88;;;19.58;;
27428;SDS011;14881;48.092;11.574;2024-03-02T05:44:14;30.42;;;22.13;;
27428;SDS011;14881;48.092;11.574;2024-03-02T05:46:42;31.83;;;22.60;;
27428;SDS011;14881;48.092;11.574;2024-03-02T05:49:12;34.33;;;23.13;;
27428;SDS011;14881;48.092;11.574;2024-03-02T05:51:39;37.67;;;26.58;;
27428;SDS011;14881;48.092;11.574;2024-03-02T05:54:08;44.55;;;27.30;;
27428;SDS011;14881;48.092;11.574;2024-03-02T05:56:35;35.88;;;24.95;;
27428;SDS011;14881;48.092;11.574;2024-03-02T05:59:04;37.35;;;24.48;;
27428;SDS011;14881;48.092;11.574;2024-03-02T06:01:39;44.42;;;26.83;;
27428;SDS011;14881;48.092;11.574;2024-03-02T06:04:07;38.78;;;26.27;;
27428;SDS011;14881;48.092;11.574;2024-03-02T06:06:36;38.35;;;26.33;;
27428;SDS011;14881;48.092;11.574;2024-03-02T06:09:05;49.33;;;31.48;;
27428;SDS011;14881;48.092;11.574;2024-03-02T06:11:34;50.65;;;30.38;;
27428;SDS011;14881;48.092;11.574;2024-03-02T06:14:02;48.00;;;31.73;;
27428;SDS011;14881;48.092;11.574;2024-03-02T06:16:30;51.63;;;33.75;;
27428;SDS011;14881;48.092;11.574;2024-03-02T06:18:58;48.75;;;31.63;;
27428;SDS011;14881;48.092;11.574;2024-03-02T06:21:27;39.65;;;27.15;;
27428;SDS011;14881;48.092;11.574;2024-03-02T06:23:56;42.05;;;27.00;;
27428;SDS011;14881;48.092;11.574;2024-03-02T06:26:24;37.20;;;25.50;;
27428;SDS011;14881;48.092;11.574;2024-03-02T06:28:52;35.67;;;23.50;;
27428;SDS011;14881;48.092;11.574;2024-03-02T06:31:20;29.70;;;20.23;;
27428;SDS011;14881;48.092;11.574;2024-03-02T06:33:47;32.78;;;22.38;;
27428;SDS011;14881;48.092;11.574;2024-03-02T06:36:15;32.45;;;22.55;;
27428;SDS011;14881;48.092;11.574;2024-03-02T06:38:43;32.88;;;23.27;;
27428;SDS011;14881;48.092;11.574;2024-03-02T06:41:12;36.15;;;24.58;;
27428;SDS011;14881;48.092;11.574;2024-03-02T06:43:40;32.65;;;22.38;;
27428;SDS011;14881;48.092;11.574;2024-03-02T06:46:08;32.83;;;22.60;;
27428;SDS011;14881;48.092;11.574;2024-03-02T06:48:36;30.85;;;22.23;;
27428;SDS011;14881;48.092;11.574;2024-03-02T06:51:04;32.28;;;21.23;;
27428;SDS011;14881;48.092;11.574;2024-03-02T06:53:32;32.53;;;21.95;;
27428;SDS011;14881;48.092;11.574;2024-03-02T06:56:00;30.25;;;20.27;;
27428;SDS011;14881;48.092;11.574;2024-03-02T06:58:30;35.58;;;22.95;;
27428;SDS011;14881;48.092;11.574;2024-03-02T07:00:58;31.13;;;21.00;;
27428;SDS011;14881;48.092;11.574;2024-03-02T07:03:27;33.10;;;21.00;;
27428;SDS011;14881;48.092;11.574;2024-03-02T07:05:55;33.13;;;22.00;;
27428;SDS011;14881;48.092;11.574;2024-03-02T07:08:23;32.08;;;22.50;;
27428;SDS011;14881;48.092;11.574;2024-03-02T07:10:51;34.97;;;22.92;;
27428;SDS011;14881;48.092;11.574;2024-03-02T07:13:19;30.13;;;20.55;;
27428;SDS011;14881;48.092;11.574;2024-03-02T07:15:49;28.92;;;21.17;;
27428;SDS011;14881;48.092;11.574;2024-03-02T07:18:42;28.92;;;20.40;;
27428;SDS011;14881;48.092;11.574;2024-03-02T07:21:17;32.38;;;22.02;;
27428;SDS011;14881;48.092;11.574;2024-03-02T07:23:45;35.03;;;22.77;;
27428;SDS011;14881;48.092;11.574;2024-03-02T07:26:16;30.20;;;21.48;;
27428;SDS011;14881;48.092;11.574;2024-03-02T07:28:48;32.90;;;23.73;;
27428;SDS011;14881;48.092;11.574;2024-03-02T07:31:17;33.20;;;22.40;;
27428;SDS011;14881;48.092;11.574;2024-03-02T07:33:45;38.65;;;25.02;;
27428;SDS011;14881;48.092;11.574;2024-03-02T07:36:14;36.85;;;26.30;;
27428;SDS011;14881;48.092;11.574;2024-03-02T07:38:46;41.38;;;28.70;;
27428;SDS011;14881;48.092;11.574;2024-03-02T07:41:16;43.05;;;27.88;;
27428;SDS011;14881;48.092;11.574;2024-03-02T07:43:44;40.92;;;27.05;;
27428;SDS011;14881;48.092;11.574;2024-03-02T07:46:12;39.08;;;26.13;;
27428;SDS011;14881;48.092;11.574;2024-03-02T07:48:42;44.13;;;27.30;;
27428;SDS011;14881;48.092;11.574;2024-03-02T07:51:10;43.58;;;27.60;;
27428;SDS011;14881;48.092;11.574;2024-03-02T07:53:41;39.40;;;26.00;;
27428;SDS011;14881;48.092;11.574;2024-03-02T07:56:10;36.10;;;23.73;;
27428;SDS011;14881;48.092;11.574;2024-03-02T07:58:38;43.10;;;27.42;;
27428;SDS011;14881;48.092;11.574;2024-03-02T08:01:07;43.42;;;29.85;;
27428;SDS011;14881;48.092;11.574;2024-03-02T08:03:35;43.17;;;28.65;;
27428;SDS011;14881;48.092;11.574;2024-03-02T08:06:04;42.47;;;28.60;;
27428;SDS011;14881;48.092;11.574;2024-03-02T08:08:32;37.80;;;25.83;;
27428;SDS011;14881;48.092;11.574;2024-03-02T08:11:00;39.42;;;26.02;;
27428;SDS011;14881;48.092;11.574;2024-03-02T08:13:28;35.28;;;22.65;;
27428;SDS011;14881;48.092;11.574;2024-03-02T08:15:56;35.38;;;24.15;;
27428;SDS011;14881;48.092;11.574;2024-03-02T08:18:24;31.73;;;22.33;;
27428;SDS011;14881;48.092;11.574;2024-03-02T08:20:52;33.25;;;23.00;;
27428;SDS011;14881;48.092;11.574;2024-03-02T08:23:21;32.75;;;21.95;;
27428;SDS011;14881;48.092;11.574;2024-03-02T08:25:49;30.92;;;21.98;;
27428;SDS011;14881;48.092;11.574;2024-03-02T08:28:17;26.77;;;19.70;;
27428;SDS011;14881;48.092;11.574;2024-03-02T08:30:45;27.48;;;19.08;;
27428;SDS011;14881;48.092;11.574;2024-03-02T08:33:13;30.70;;;19.25;;
27428;SDS011;14881;48.092;11.574;2024-03-02T08:35:41;29.38;;;19.02;;
27428;SDS011;14881;48.092;11.574;2024-03-02T08:38:09;25.50;;;18.38;;
27428;SDS011;14881;48.092;11.574;2024-03-02T08:40:38;25.48;;;18.33;;
27428;SDS011;14881;48.092;11.574;2024-03-02T08:43:06;24.90;;;18.45;;
27428;SDS011;14881;48.092;11.574;2024-03-02T08:45:34;22.65;;;16.73;;
27428;SDS011;14881;48.092;11.574;2024-03-02T08:48:02;21.58;;;16.95;;
27428;SDS011;14881;48.092;11.574;2024-03-02T08:50:31;22.15;;;17.02;;
27428;SDS011;14881;48.092;11.574;2024-03-02T08:52:58;25.20;;;17.88;;
27428;SDS011;14881;48.092;11.574;2024-03-02T08:55:26;27.45;;;19.33;;
27428;SDS011;14881;48.092;11.574;2024-03-02T08:57:56;27.17;;;19.50;;
27428;SDS011;14881;48.092;11.574;2024-03-02T09:00:23;27.58;;;18.55;;
27428;SDS011;14881;48.092;11.574;2024-03-02T09:02:52;24.40;;;19.35;;
27428;SDS011;14881;48.092;11.574;2024-03-02T09:05:20;25.65;;;18.85;;
27428;SDS011;14881;48.092;11.574;2024-03-02T09:07:48;25.52;;;18.58;;
27428;SDS011;14881;48.092;11.574;2024-03-02T09:10:16;23.15;;;17.23;;
27428;SDS011;14881;48.092;11.574;2024-03-02T09:12:44;23.85;;;18.45;;
27428;SDS011;14881;48.092;11.574;2024-03-02T09:15:13;23.92;;;18.13;;
27428;SDS011;14881;48.092;11.574;2024-03-02T09:17:41;19.13;;;15.77;;
27428;SDS011;14881;48.092;11.574;2024-03-02T09:20:10;23.83;;;16.48;;
27428;SDS011;14881;48.092;11.574;2024-03-02T09:22:38;23.23;;;17.58;;
27428;SDS011;14881;48.092;11.574;2024-03-02T09:25:06;24.00;;;17.48;;
27428;SDS011;14881;48.092;11.574;2024-03-02T09:27:36;22.00;;;17.45;;
27428;SDS011;14881;48.092;11.574;2024-03-02T09:30:04;21.27;;;17.00;;
27428;SDS011;14881;48.092;11.574;2024-03-02T09:32:36;19.25;;;15.25;;
27428;SDS011;14881;48.092;11.574;2024-03-02T09:35:05;17.92;;;14.35;;
27428;SDS011;14881;48.092;11.574;2024-03-02T09:37:33;16.38;;;13.20;;
27428;SDS011;14881;48.092;11.574;2024-03-02T09:40:01;19.10;;;13.95;;
27428;SDS011;14881;48.092;11.574;2024-03-02T09:42:29;18.23;;;15.20;;
27428;SDS011;14881;48.092;11.574;2024-03-02T09:44:58;14.98;;;11.95;;
27428;SDS011;14881;48.092;11.574;2024-03-02T09:47:26;18.15;;;10.98;;
27428;SDS011;14881;48.092;11.574;2024-03-02T09:49:55;15.57;;;11.98;;
27428;SDS011;14881;48.092;11.574;2024-03-02T09:52:23;14.38;;;11.27;;
27428;SDS011;14881;48.092;11.574;2024-03-02T09:54:51;15.88;;;12.65;;
27428;SDS011;14881;48.092;11.574;2024-03-02T09:57:19;16.77;;;12.27;;
27428;SDS011;14881;48.092;11.574;2024-03-02T09:59:47;14.15;;;10.50;;
27428;SDS011;14881;48.092;11.574;2024-03-02T10:02:15;14.88;;;10.88;;
27428;SDS011;14881;48.092;11.574;2024-03-02T10:04:43;14.43;;;11.43;;
27428;SDS011;14881;48.092;11.574;2024-03-02T10:07:13;13.18;;;11.13;;
27428;SDS011;14881;48.092;11.574;2024-03-02T10:09:42;12.95;;;9.98;;
27428;SDS011;14881;48.092;11.574;2024-03-02T10:12:12;14.15;;;9.15;;
27428;SDS011;14881;48.092;11.574;2024-03-02T10:14:41;10.13;;;7.95;;
27428;SDS011;14881;48.092;11.574;2024-03-02T10:17:10;9.77;;;8.63;;
27428;SDS011;14881;48.092;11.574;2024-03-02T10:19:39;9.63;;;8.57;;
27428;SDS011;14881;48.092;11.574;2024-03-02T10:22:08;8.05;;;7.25;;
27428;SDS011;14881;48.092;11.574;2024-03-02T10:24:38;10.07;;;8.27;;
27428;SDS011;14881;48.092;11.574;2024-03-02T10:27:08;10.63;;;7.90;;
27428;SDS011;14881;48.092;11.574;2024-03-02T10:29:37;11.50;;;8.27;;
27428;SDS011;14881;48.092;11.574;2024-03-02T10:32:08;10.98;;;9.18;;
27428;SDS011;14881;48.092;11.574;2024-03-02T10:34:37;11.98;;;9.60;;
27428;SDS011;14881;48.092;11.574;2024-03-02T10:37:07;10.68;;;8.77;;
27428;SDS011;14881;48.092;11.574;2024-03-02T10:39:34;12.00;;;9.63;;
27428;SDS011;14881;48.092;11.574;2024-03-02T10:42:04;10.80;;;9.10;;
27428;SDS011;14881;48.092;11.574;2024-03-02T10:44:33;12.93;;;9.95;;
27428;SDS011;14881;48.092;11.574;2024-03-02T10:47:02;12.23;;;9.23;;
27428;SDS011;14881;48.092;11.574;2024-03-02T10:49:32;13.27;;;9.98;;
27428;SDS011;14881;48.092;11.574;2024-03-02T10:52:00;12.77;;;9.88;;
27428;SDS011;14881;48.092;11.574;2024-03-02T10:54:28;12.30;;;10.20;;
27428;SDS011;14881;48.092;11.574;2024-03-02T10:57:04;13.50;;;10.43;;
27428;SDS011;14881;48.092;11.574;2024-03-02T10:59:36;12.52;;;9.30;;
27428;SDS011;14881;48.092;11.574;2024-03-02T11:02:07;14.20;;;9.77;;
27428;SDS011;14881;48.092;11.574;2024-03-02T11:04:39;10.35;;;8.20;;
27428;SDS011;14881;48.092;11.574;2024-03-02T11:07:09;11.68;;;8.02;;
27428;SDS011;14881;48.092;11.574;2024-03-02T11:09:40;11.35;;;8.73;;
27428;SDS011;14881;48.092;11.574;2024-03-02T11:12:13;11.00;;;9.32;;
27428;SDS011;14881;48.092;11.574;2024-03-02T11:14:46;12.20;;;8.93;;
27428;SDS011;14881;48.092;11.574;2024-03-02T11:17:14;11.52;;;9.18;;
27428;SDS011;14881;48.092;11.574;2024-03-02T11:19:44;12.20;;;8.98;;
27428;SDS011;14881;48.092;11.574;2024-03-02T11:22:12;11.77;;;8.90;;
27428;SDS011;14881;48.092;11.574;2024-03-02T11:24:47;13.82;;;9.98;;
27428;SDS011;14881;48.092;11.574;2024-03-02T11:27:20;15.35;;;9.95;;
27428;SDS011;14881;48.092;11.574;2024-03-02T11:33:23;14.35;;;10.35;;
27428;SDS011;14881;48.092;11.574;2024-03-02T11:35:53;14.00;;;10.18;;
27428;SDS011;14881;48.092;11.574;2024-03-02T11:38:23;12.90;;;9.52;;
27428;SDS011;14881;48.092;11.574;2024-03-02T11:40:55;10.98;;;8.35;;
27428;SDS011;14881;48.092;11.574;2024-03-02T11:43:26;12.70;;;8.40;;
27428;SDS011;14881;48.092;11.574;2024-03-02T11:45:59;11.43;;;7.95;;
27428;SDS011;14881;48.092;11.574;2024-03-02T11:48:30;14.80;;;8.55;;
27428;SDS011;14881;48.092;11.574;2024-03-02T11:51:00;11.25;;;7.88;;
27428;SDS011;14881;48.092;11.574;2024-03-02T11:53:28;13.15;;;8.85;;
27428;SDS011;14881;48.092;11.574;2024-03-02T11:56:01;11.82;;;8.55;;
27428;SDS011;14881;48.092;11.574;2024-03-02T11:58:31;13.73;;;10.23;;
27428;SDS011;14881;48.092;11.574;2024-03-02T12:00:59;13.43;;;9.02;;
27428;SDS011;14881;48.092;11.574;2024-03-02T12:03:28;14.65;;;9.95;;
27428;SDS011;14881;48.092;11.574;2024-03-02T12:05:57;12.73;;;9.30;;
27428;SDS011;14881;48.092;11.574;2024-03-02T12:08:26;11.13;;;8.50;;
27428;SDS011;14881;48.092;11.574;2024-03-02T12:10:55;8.68;;;6.90;;
27428;SDS011;14881;48.092;11.574;2024-03-02T12:13:24;11.13;;;7.85;;
27428;SDS011;14881;48.092;11.574;2024-03-02T12:15:54;12.90;;;9.60;;
27428;SDS011;14881;48.092;11.574;2024-03-02T12:18:23;10.05;;;7.22;;
27428;SDS011;14881;48.092;11.574;2024-03-02T12:20:52;12.27;;;9.55;;
27428;SDS011;14881;48.092;11.574;2024-03-02T12:23:24;14.40;;;9.48;;
27428;SDS011;14881;48.092;11.574;2024-03-02T12:25:52;14.43;;;10.70;;
27428;SDS011;14881;48.092;11.574;2024-03-02T12:28:20;16.35;;;10.85;;
27428;SDS011;14881;48.092;11.574;2024-03-02T12:30:48;15.05;;;10.30;;
27428;SDS011;14881;48.092;11.574;2024-03-02T12:33:18;18.30;;;11.88;;
27428;SDS011;14881;48.092;11.574;2024-03-02T12:35:48;16.02;;;11.90;;
27428;SDS011;14881;48.092;11.574;2024-03-02T12:38:16;16.25;;;11.52;;
27428;SDS011;14881;48.092;11.574;2024-03-02T12:40:44;14.43;;;11.20;;
27428;SDS011;14881;48.092;11.574;2024-03-02T12:43:14;16.33;;;11.35;;
27428;SDS011;14881;48.092;11.574;2024-03-02T12:45:42;14.40;;;10.93;;
27428;SDS011;14881;48.092;11.574;2024-03-02T12:48:10;14.52;;;10.75;;
27428;SDS011;14881;48.092;11.574;2024-03-02T12:50:39;14.57;;;9.98;;
27428;SDS011;14881;48.092;11.574;2024-03-02T12:53:07;12.13;;;8.98;;
27428;SDS011;14881;48.092;11.574;2024-03-02T12:55:42;10.98;;;8.30;;
27428;SDS011;14881;48.092;11.574;2024-03-02T12:58:16;11.02;;;8.07;;
27428;SDS011;14881;48.092;11.574;2024-03-02T13:00:44;11.70;;;8.57;;
27428;SDS011;14881;48.092;11.574;2024-03-02T13:03:12;13.73;;;8.55;;
27428;SDS011;14881;48.092;11.574;2024-03-02T13:05:47;9.55;;;6.40;;
27428;SDS011;14881;48.092;11.574;2024-03-02T13:08:16;9.93;;;6.47;;
27428;SDS011;14881;48.092;11.574;2024-03-02T13:10:44;8.85;;;5.35;;
27428;SDS011;14881;48.092;11.574;2024-03-02T13:13:12;8.32;;;5.35;;
27428;SDS011;14881;48.092;11.574;2024-03-02T13:15:41;6.45;;;4.93;;
27428;SDS011;14881;48.092;11.574;2024-03-02T13:18:09;7.18;;;4.70;;
27428;SDS011;14881;48.092;11.574;2024-03-02T13:20:38;5.78;;;4.60;;
27428;SDS011;14881;48.092;11.574;2024-03-02T13:23:07;8.63;;;4.80;;
27428;SDS011;14881;48.092;11.574;2024-03-02T13:25:36;7.05;;;5.30;;
27428;SDS011;14881;48.092;11.574;2024-03-02T13:28:04;7.68;;;5.10;;
27428;SDS011;14881;48.092;11.574;2024-03-02T13:30:33;13.60;;;7.57;;
27428;SDS011;14881;48.092;11.574;2024-03-02T13:33:01;7.85;;;5.05;;
27428;SDS011;14881;48.092;11.574;2024-03-02T13:35:28;7.00;;;5.47;;
27428;SDS011;14881;48.092;11.574;2024-03-02T13:37:58;9.38;;;5.63;;
27428;SDS011;14881;48.092;11.574;2024-03-02T13:40:27;38.88;;;28.13;;
27428;SDS011;14881;48.092;11.574;2024-03-02T13:42:58;7.13;;;4.97;;
27428;SDS011;14881;48.092;11.574;2024-03-02T13:45:25;9.32;;;5.90;;
27428;SDS011;14881;48.092;11.574;2024-03-02T13:47:54;11.65;;;6.85;;
27428;SDS011;14881;48.092;11.574;2024-03-02T13:50:22;8.88;;;7.15;;
27428;SDS011;14881;48.092;11.574;2024-03-02T13:52:50;10.85;;;7.35;;
27428;SDS011;14881;48.092;11.574;2024-03-02T13:55:18;10.60;;;7.65;;
27428;SDS011;14881;48.092;11.574;2024-03-02T13:57:47;11.52;;;8.55;;
27428;SDS011;14881;48.092;11.574;2024-03-02T14:00:16;10.32;;;8.02;;
27428;SDS011;14881;48.092;11.574;2024-03-02T14:02:45;11.27;;;8.10;;
27428;SDS011;14881;48.092;11.574;2024-03-02T14:05:15;11.35;;;7.57;;
27428;SDS011;14881;48.092;11.574;2024-03-02T14:07:43;13.25;;;7.55;;
27428;SDS011;14881;48.092;11.574;2024-03-02T14:10:11;12.15;;;8.23;;
27428;SDS011;14881;48.092;11.574;2024-03-02T14:12:40;11.43;;;7.63;;
27428;SDS011;14881;48.092;11.574;2024-03-02T14:15:10;25.30;;;15.50;;
27428;SDS011;14881;48.092;11.574;2024-03-02T14:17:38;10.15;;;7.30;;
27428;SDS011;14881;48.092;11.574;2024-03-02T14:20:06;18.05;;;12.43;;
27428;SDS011;14881;48.092;11.574;2024-03-02T14:22:36;20.95;;;13.68;;
27428;SDS011;14881;48.092;11.574;2024-03-02T14:25:04;9.35;;;6.55;;
27428;SDS011;14881;48.092;11.574;2024-03-02T14:27:33;41.50;;;24.08;;
27428;SDS011;14881;48.092;11.574;2024-03-02T14:30:23;12.32;;;6.07;;
27428;SDS011;14881;48.092;11.574;2024-03-02T14:32:51;51.38;;;34.58;;